sensor_id;sensor_type;location;lat;lon;timestamp;P1;durP1;ratioP1;P2;durP2;ratioP2
44328;SDS011;30039;51.462;6.892;2023-03-14T00:00:16;4.25;;;1.30;;
44328;SDS011;30039;51.462;6.892;2023-03-14T00:03:02;4.57;;;1.60;;
44328;SDS011;30039;51.462;6.892;2023-03-14T00:05:47;8.15;;;1.77;;
44328;SDS011;30039;51.462;6.892;2023-03-14T00:08:33;3.92;;;1.40;;
44328;SDS011;30039;51.462;6.892;2023-03-14T00:11:20;6.40;;;1.45;;
44328;SDS011;30039;51.462;6.892;2023-03-14T00:14:05;4.45;;;1.20;;
44328;SDS011;30039;51.462;6.892;2023-03-14T00:16:51;3.97;;;1.23;;
44328;SDS011;30039;51.462;6.892;2023-03-14T00:19:37;4.78;;;1.33;;
44328;SDS011;30039;51.462;6.892;2023-03-14T00:22:22;3.30;;;1.13;;
44328;SDS011;30039;51.462;6.892;2023-03-14T00:25:08;4.43;;;1.15;;
44328;SDS011;30039;51.462;6.892;2023-03-14T00:27:54;3.35;;;1.20;;
44328;SDS011;30039;51.462;6.892;2023-03-14T00:30:40;4.53;;;1.60;;
44328;SDS011;30039;51.462;6.892;2023-03-14T00:33:26;6.25;;;1.67;;
44328;SDS011;30039;51.462;6.892;2023-03-14T00:36:13;5.38;;;1.60;;
44328;SDS011;30039;51.462;6.892;2023-03-14T00:38:59;5.30;;;1.25;;
44328;SDS011;30039;51.462;6.892;2023-03-14T00:41:45;5.70;;;1.30;;
44328;SDS011;30039;51.462;6.892;2023-03-14T00:44:30;1.48;;;0.80;;
44328;SDS011;30039;51.462;6.892;2023-03-14T00:47:17;3.38;;;1.10;;
44328;SDS011;30039;51.462;6.892;2023-03-14T00:50:02;5.22;;;1.15;;
44328;SDS011;30039;51.462;6.892;2023-03-14T00:52:48;2.60;;;1.05;;
44328;SDS011;30039;51.462;6.892;2023-03-14T00:55:38;3.80;;;0.90;;
44328;SDS011;30039;51.462;6.892;2023-03-14T00:58:23;3.33;;;0.85;;
44328;SDS011;30039;51.462;6.892;2023-03-14T01:01:12;2.97;;;1.02;;
44328;SDS011;30039;51.462;6.892;2023-03-14T01:03:58;2.40;;;0.75;;
44328;SDS011;30039;51.462;6.892;2023-03-14T01:06:44;2.33;;;0.88;;
44328;SDS011;30039;51.462;6.892;2023-03-14T01:09:30;5.40;;;0.88;;
44328;SDS011;30039;51.462;6.892;2023-03-14T01:12:16;2.33;;;0.75;;
44328;SDS011;30039;51.462;6.892;2023-03-14T01:15:02;1.33;;;0.52;;
44328;SDS011;30039;51.462;6.892;2023-03-14T01:17:48;2.38;;;0.77;;
44328;SDS011;30039;51.462;6.892;2023-03-14T01:20:33;3.08;;;0.85;;
44328;SDS011;30039;51.462;6.892;2023-03-14T01:23:19;3.92;;;0.95;;
44328;SDS011;30039;51.462;6.892;2023-03-14T01:26:07;3.95;;;1.20;;
44328;SDS011;30039;51.462;6.892;2023-03-14T01:28:53;5.93;;;0.98;;
44328;SDS011;30039;51.462;6.892;2023-03-14T01:31:39;3.97;;;1.08;;
44328;SDS011;30039;51.462;6.892;2023-03-14T01:34:25;5.45;;;0.98;;
44328;SDS011;30039;51.462;6.892;2023-03-14T01:37:11;5.38;;;0.98;;
44328;SDS011;30039;51.462;6.892;2023-03-14T01:39:57;4.88;;;0.95;;
44328;SDS011;30039;51.462;6.892;2023-03-14T01:42:46;3.88;;;0.80;;
44328;SDS011;30039;51.462;6.892;2023-03-14T01:51:27;4.18;;;0.90;;
44328;SDS011;30039;51.462;6.892;2023-03-14T01:54:19;5.35;;;0.80;;
44328;SDS011;30039;51.462;6.892;2023-03-14T02:00:07;5.07;;;1.02;;
44328;SDS011;30039;51.462;6.892;2023-03-14T02:03:05;3.35;;;0.75;;
44328;SDS011;30039;51.462;6.892;2023-03-14T02:05:52;3.08;;;0.95;;
44328;SDS011;30039;51.462;6.892;2023-03-14T02:08:39;6.35;;;1.27;;
44328;SDS011;30039;51.462;6.892;2023-03-14T02:11:26;3.55;;;0.65;;
44328;SDS011;30039;51.462;6.892;2023-03-14T02:14:16;5.68;;;1.02;;
44328;SDS011;30039;51.462;6.892;2023-03-14T02:17:04;3.13;;;0.63;;
44328;SDS011;30039;51.462;6.892;2023-03-14T02:22:56;4.97;;;1.17;;
44328;SDS011;30039;51.462;6.892;2023-03-14T02:28:33;2.58;;;0.85;;
44328;SDS011;30039;51.462;6.892;2023-03-14T02:31:19;2.75;;;0.73;;
44328;SDS011;30039;51.462;6.892;2023-03-14T02:34:06;3.35;;;1.10;;
44328;SDS011;30039;51.462;6.892;2023-03-14T02:36:52;4.72;;;0.98;;
44328;SDS011;30039;51.462;6.892;2023-03-14T02:39:39;7.22;;;1.30;;
44328;SDS011;30039;51.462;6.892;2023-03-14T02:42:25;2.92;;;0.95;;
44328;SDS011;30039;51.462;6.892;2023-03-14T02:47:59;5.20;;;1.35;;
44328;SDS011;30039;51.462;6.892;2023-03-14T02:50:47;2.67;;;0.93;;
44328;SDS011;30039;51.462;6.892;2023-03-14T02:53:36;3.70;;;1.05;;
44328;SDS011;30039;51.462;6.892;2023-03-14T02:56:22;10.00;;;1.55;;
44328;SDS011;30039;51.462;6.892;2023-03-14T02:59:08;10.35;;;1.38;;
44328;SDS011;30039;51.462;6.892;2023-03-14T03:01:54;9.05;;;1.00;;
44328;SDS011;30039;51.462;6.892;2023-03-14T03:04:39;3.10;;;1.00;;
44328;SDS011;30039;51.462;6.892;2023-03-14T03:07:25;3.17;;;0.85;;
44328;SDS011;30039;51.462;6.892;2023-03-14T03:10:11;5.88;;;1.02;;
44328;SDS011;30039;51.462;6.892;2023-03-14T03:12:56;3.45;;;0.80;;
44328;SDS011;30039;51.462;6.892;2023-03-14T03:15:42;3.03;;;0.57;;
44328;SDS011;30039;51.462;6.892;2023-03-14T03:18:28;4.43;;;0.90;;
44328;SDS011;30039;51.462;6.892;2023-03-14T03:21:13;3.92;;;1.02;;
44328;SDS011;30039;51.462;6.892;2023-03-14T03:23:59;4.90;;;1.15;;
44328;SDS011;30039;51.462;6.892;2023-03-14T03:26:45;4.63;;;0.90;;
44328;SDS011;30039;51.462;6.892;2023-03-14T03:29:30;6.47;;;1.25;;
44328;SDS011;30039;51.462;6.892;2023-03-14T03:32:16;5.07;;;1.10;;
44328;SDS011;30039;51.462;6.892;2023-03-14T03:35:05;5.85;;;1.05;;
44328;SDS011;30039;51.462;6.892;2023-03-14T03:37:52;4.35;;;0.82;;
44328;SDS011;30039;51.462;6.892;2023-03-14T03:40:37;4.93;;;1.38;;
44328;SDS011;30039;51.462;6.892;2023-03-14T03:43:23;4.85;;;1.23;;
44328;SDS011;30039;51.462;6.892;2023-03-14T03:46:08;6.00;;;1.05;;
44328;SDS011;30039;51.462;6.892;2023-03-14T03:48:55;2.97;;;0.77;;
44328;SDS011;30039;51.462;6.892;2023-03-14T03:51:41;5.93;;;1.20;;
44328;SDS011;30039;51.462;6.892;2023-03-14T03:54:28;5.38;;;1.35;;
44328;SDS011;30039;51.462;6.892;2023-03-14T03:57:14;4.40;;;1.15;;
44328;SDS011;30039;51.462;6.892;2023-03-14T04:00:00;4.07;;;1.27;;
44328;SDS011;30039;51.462;6.892;2023-03-14T04:02:45;5.35;;;1.23;;
44328;SDS011;30039;51.462;6.892;2023-03-14T04:05:31;3.55;;;0.98;;
44328;SDS011;30039;51.462;6.892;2023-03-14T04:08:17;5.45;;;1.33;;
44328;SDS011;30039;51.462;6.892;2023-03-14T04:11:02;9.98;;;1.15;;
44328;SDS011;30039;51.462;6.892;2023-03-14T04:13:48;6.82;;;1.38;;
44328;SDS011;30039;51.462;6.892;2023-03-14T04:16:33;3.05;;;1.08;;
44328;SDS011;30039;51.462;6.892;2023-03-14T04:19:20;4.65;;;1.17;;
44328;SDS011;30039;51.462;6.892;2023-03-14T04:22:05;3.30;;;0.85;;
44328;SDS011;30039;51.462;6.892;2023-03-14T04:24:51;2.50;;;0.68;;
44328;SDS011;30039;51.462;6.892;2023-03-14T04:27:36;4.53;;;0.80;;
44328;SDS011;30039;51.462;6.892;2023-03-14T04:30:22;4.30;;;1.10;;
44328;SDS011;30039;51.462;6.892;2023-03-14T04:33:08;4.00;;;1.00;;
44328;SDS011;30039;51.462;6.892;2023-03-14T04:35:55;1.10;;;0.60;;
44328;SDS011;30039;51.462;6.892;2023-03-14T04:38:41;3.65;;;0.70;;
44328;SDS011;30039;51.462;6.892;2023-03-14T04:41:27;1.40;;;0.60;;
44328;SDS011;30039;51.462;6.892;2023-03-14T04:44:12;2.38;;;0.80;;
44328;SDS011;30039;51.462;6.892;2023-03-14T04:46:58;1.58;;;0.82;;
44328;SDS011;30039;51.462;6.892;2023-03-14T04:49:44;4.72;;;1.08;;
44328;SDS011;30039;51.462;6.892;2023-03-14T04:52:29;3.53;;;0.90;;
44328;SDS011;30039;51.462;6.892;2023-03-14T04:55:15;3.25;;;0.82;;
44328;SDS011;30039;51.462;6.892;2023-03-14T04:58:00;2.03;;;0.47;;
44328;SDS011;30039;51.462;6.892;2023-03-14T05:00:47;0.40;;;0.30;;
44328;SDS011;30039;51.462;6.892;2023-03-14T05:03:32;0.80;;;0.50;;
44328;SDS011;30039;51.462;6.892;2023-03-14T05:06:18;1.75;;;0.60;;
44328;SDS011;30039;51.462;6.892;2023-03-14T05:09:05;2.15;;;0.68;;
44328;SDS011;30039;51.462;6.892;2023-03-14T05:11:50;3.85;;;0.70;;
44328;SDS011;30039;51.462;6.892;2023-03-14T05:14:36;2.65;;;0.60;;
44328;SDS011;30039;51.462;6.892;2023-03-14T05:17:21;1.63;;;0.73;;
44328;SDS011;30039;51.462;6.892;2023-03-14T05:20:07;2.13;;;0.70;;
44328;SDS011;30039;51.462;6.892;2023-03-14T05:22:54;1.25;;;0.88;;
44328;SDS011;30039;51.462;6.892;2023-03-14T05:25:42;4.60;;;1.13;;
44328;SDS011;30039;51.462;6.892;2023-03-14T05:28:28;2.88;;;1.20;;
44328;SDS011;30039;51.462;6.892;2023-03-14T05:31:13;4.10;;;1.05;;
44328;SDS011;30039;51.462;6.892;2023-03-14T05:33:59;2.65;;;1.33;;
44328;SDS011;30039;51.462;6.892;2023-03-14T05:36:45;2.95;;;1.00;;
44328;SDS011;30039;51.462;6.892;2023-03-14T05:39:30;1.33;;;0.70;;
44328;SDS011;30039;51.462;6.892;2023-03-14T05:42:16;2.25;;;0.63;;
44328;SDS011;30039;51.462;6.892;2023-03-14T05:45:02;2.38;;;0.90;;
44328;SDS011;30039;51.462;6.892;2023-03-14T05:47:47;1.63;;;1.00;;
44328;SDS011;30039;51.462;6.892;2023-03-14T05:50:33;2.00;;;1.00;;
44328;SDS011;30039;51.462;6.892;2023-03-14T05:53:19;6.45;;;1.20;;
44328;SDS011;30039;51.462;6.892;2023-03-14T05:56:05;1.90;;;1.00;;
44328;SDS011;30039;51.462;6.892;2023-03-14T05:58:51;3.67;;;1.17;;
44328;SDS011;30039;51.462;6.892;2023-03-14T06:01:37;3.92;;;1.52;;
44328;SDS011;30039;51.462;6.892;2023-03-14T06:04:24;1.20;;;0.82;;
44328;SDS011;30039;51.462;6.892;2023-03-14T06:07:10;2.70;;;1.05;;
44328;SDS011;30039;51.462;6.892;2023-03-14T06:09:55;2.03;;;0.90;;
44328;SDS011;30039;51.462;6.892;2023-03-14T06:12:41;2.42;;;0.88;;
44328;SDS011;30039;51.462;6.892;2023-03-14T06:15:26;1.70;;;1.00;;
44328;SDS011;30039;51.462;6.892;2023-03-14T06:18:12;2.13;;;0.88;;
44328;SDS011;30039;51.462;6.892;2023-03-14T06:20:59;0.95;;;0.65;;
44328;SDS011;30039;51.462;6.892;2023-03-14T06:23:45;2.83;;;0.90;;
44328;SDS011;30039;51.462;6.892;2023-03-14T06:26:30;2.05;;;1.00;;
44328;SDS011;30039;51.462;6.892;2023-03-14T06:29:16;2.22;;;1.00;;
44328;SDS011;30039;51.462;6.892;2023-03-14T06:32:02;2.40;;;1.33;;
44328;SDS011;30039;51.462;6.892;2023-03-14T06:34:53;3.65;;;1.00;;
44328;SDS011;30039;51.462;6.892;2023-03-14T06:37:39;3.85;;;1.15;;
44328;SDS011;30039;51.462;6.892;2023-03-14T06:40:24;6.57;;;1.42;;
44328;SDS011;30039;51.462;6.892;2023-03-14T06:43:10;3.05;;;1.15;;
44328;SDS011;30039;51.462;6.892;2023-03-14T06:45:56;4.10;;;1.40;;
44328;SDS011;30039;51.462;6.892;2023-03-14T06:48:42;2.80;;;1.15;;
44328;SDS011;30039;51.462;6.892;2023-03-14T06:51:27;4.18;;;1.20;;
44328;SDS011;30039;51.462;6.892;2023-03-14T06:54:13;2.97;;;1.30;;
44328;SDS011;30039;51.462;6.892;2023-03-14T06:56:59;2.13;;;0.85;;
44328;SDS011;30039;51.462;6.892;2023-03-14T06:59:45;2.03;;;0.90;;
44328;SDS011;30039;51.462;6.892;2023-03-14T07:02:30;1.90;;;0.70;;
44328;SDS011;30039;51.462;6.892;2023-03-14T07:05:16;2.92;;;1.10;;
44328;SDS011;30039;51.462;6.892;2023-03-14T07:08:01;4.10;;;0.93;;
44328;SDS011;30039;51.462;6.892;2023-03-14T07:10:47;2.90;;;0.80;;
44328;SDS011;30039;51.462;6.892;2023-03-14T07:13:32;1.38;;;0.85;;
44328;SDS011;30039;51.462;6.892;2023-03-14T07:16:18;2.00;;;0.93;;
44328;SDS011;30039;51.462;6.892;2023-03-14T07:19:03;2.95;;;1.30;;
44328;SDS011;30039;51.462;6.892;2023-03-14T07:21:50;1.27;;;0.68;;
44328;SDS011;30039;51.462;6.892;2023-03-14T07:24:36;0.73;;;0.57;;
44328;SDS011;30039;51.462;6.892;2023-03-14T07:27:21;2.72;;;0.70;;
44328;SDS011;30039;51.462;6.892;2023-03-14T07:30:07;0.73;;;0.50;;
44328;SDS011;30039;51.462;6.892;2023-03-14T07:32:53;0.60;;;0.50;;
44328;SDS011;30039;51.462;6.892;2023-03-14T07:35:38;0.35;;;0.35;;
44328;SDS011;30039;51.462;6.892;2023-03-14T07:38:24;0.90;;;0.50;;
44328;SDS011;30039;51.462;6.892;2023-03-14T07:41:10;1.70;;;0.80;;
44328;SDS011;30039;51.462;6.892;2023-03-14T07:43:55;2.75;;;0.88;;
44328;SDS011;30039;51.462;6.892;2023-03-14T07:46:42;2.60;;;0.90;;
44328;SDS011;30039;51.462;6.892;2023-03-14T07:49:28;2.90;;;0.85;;
44328;SDS011;30039;51.462;6.892;2023-03-14T07:52:13;1.10;;;0.73;;
44328;SDS011;30039;51.462;6.892;2023-03-14T07:54:59;1.95;;;1.13;;
44328;SDS011;30039;51.462;6.892;2023-03-14T07:57:45;2.78;;;1.08;;
44328;SDS011;30039;51.462;6.892;2023-03-14T08:00:30;2.55;;;1.17;;
44328;SDS011;30039;51.462;6.892;2023-03-14T08:03:16;3.08;;;0.93;;
44328;SDS011;30039;51.462;6.892;2023-03-14T08:06:02;2.20;;;0.93;;
44328;SDS011;30039;51.462;6.892;2023-03-14T08:08:47;2.28;;;1.23;;
44328;SDS011;30039;51.462;6.892;2023-03-14T08:11:33;2.38;;;1.35;;
44328;SDS011;30039;51.462;6.892;2023-03-14T08:14:22;1.95;;;1.13;;
44328;SDS011;30039;51.462;6.892;2023-03-14T08:17:09;1.70;;;1.10;;
44328;SDS011;30039;51.462;6.892;2023-03-14T08:19:54;2.95;;;1.65;;
44328;SDS011;30039;51.462;6.892;2023-03-14T08:22:40;2.33;;;1.75;;
44328;SDS011;30039;51.462;6.892;2023-03-14T08:25:26;3.33;;;1.80;;
44328;SDS011;30039;51.462;6.892;2023-03-14T08:28:12;3.28;;;2.08;;
44328;SDS011;30039;51.462;6.892;2023-03-14T08:30:57;4.82;;;2.75;;
44328;SDS011;30039;51.462;6.892;2023-03-14T08:33:44;4.07;;;2.92;;
44328;SDS011;30039;51.462;6.892;2023-03-14T08:36:30;5.65;;;2.78;;
44328;SDS011;30039;51.462;6.892;2023-03-14T08:39:16;3.83;;;2.40;;
44328;SDS011;30039;51.462;6.892;2023-03-14T08:42:01;2.92;;;1.95;;
44328;SDS011;30039;51.462;6.892;2023-03-14T08:44:47;2.67;;;1.55;;
44328;SDS011;30039;51.462;6.892;2023-03-14T08:47:33;3.28;;;1.75;;
44328;SDS011;30039;51.462;6.892;2023-03-14T08:50:18;4.15;;;2.20;;
44328;SDS011;30039;51.462;6.892;2023-03-14T08:53:04;3.65;;;2.10;;
44328;SDS011;30039;51.462;6.892;2023-03-14T08:55:53;2.72;;;1.08;;
44328;SDS011;30039;51.462;6.892;2023-03-14T08:58:39;2.13;;;1.30;;
44328;SDS011;30039;51.462;6.892;2023-03-14T09:01:26;2.42;;;1.63;;
44328;SDS011;30039;51.462;6.892;2023-03-14T09:04:12;2.63;;;1.58;;
44328;SDS011;30039;51.462;6.892;2023-03-14T09:06:59;5.35;;;2.17;;
44328;SDS011;30039;51.462;6.892;2023-03-14T09:09:44;3.55;;;1.50;;
44328;SDS011;30039;51.462;6.892;2023-03-14T09:12:30;3.92;;;2.13;;
44328;SDS011;30039;51.462;6.892;2023-03-14T09:15:16;3.03;;;1.60;;
44328;SDS011;30039;51.462;6.892;2023-03-14T09:18:02;1.70;;;0.95;;
44328;SDS011;30039;51.462;6.892;2023-03-14T09:20:47;1.20;;;0.60;;
44328;SDS011;30039;51.462;6.892;2023-03-14T09:23:33;0.93;;;0.55;;
44328;SDS011;30039;51.462;6.892;2023-03-14T09:26:19;2.38;;;1.00;;
44328;SDS011;30039;51.462;6.892;2023-03-14T09:29:04;1.80;;;0.90;;
44328;SDS011;30039;51.462;6.892;2023-03-14T09:31:50;1.48;;;0.70;;
44328;SDS011;30039;51.462;6.892;2023-03-14T09:34:36;2.20;;;0.90;;
44328;SDS011;30039;51.462;6.892;2023-03-14T09:37:21;2.10;;;0.80;;
44328;SDS011;30039;51.462;6.892;2023-03-14T09:40:10;2.58;;;0.90;;
44328;SDS011;30039;51.462;6.892;2023-03-14T09:42:57;2.55;;;1.17;;
44328;SDS011;30039;51.462;6.892;2023-03-14T09:45:44;1.50;;;0.90;;
44328;SDS011;30039;51.462;6.892;2023-03-14T09:48:32;2.75;;;0.90;;
44328;SDS011;30039;51.462;6.892;2023-03-14T09:51:19;1.33;;;0.82;;
44328;SDS011;30039;51.462;6.892;2023-03-14T09:54:08;1.60;;;0.90;;
44328;SDS011;30039;51.462;6.892;2023-03-14T09:57:02;4.72;;;1.67;;
44328;SDS011;30039;51.462;6.892;2023-03-14T09:59:49;3.67;;;1.67;;
44328;SDS011;30039;51.462;6.892;2023-03-14T10:02:35;5.25;;;1.73;;
44328;SDS011;30039;51.462;6.892;2023-03-14T10:05:22;4.55;;;2.10;;
44328;SDS011;30039;51.462;6.892;2023-03-14T10:08:11;8.15;;;2.53;;
44328;SDS011;30039;51.462;6.892;2023-03-14T10:10:57;5.40;;;1.70;;
44328;SDS011;30039;51.462;6.892;2023-03-14T10:14:05;3.50;;;1.80;;
44328;SDS011;30039;51.462;6.892;2023-03-14T10:16:51;4.65;;;1.75;;
44328;SDS011;30039;51.462;6.892;2023-03-14T10:19:37;2.97;;;1.30;;
44328;SDS011;30039;51.462;6.892;2023-03-14T10:22:24;2.30;;;1.10;;
44328;SDS011;30039;51.462;6.892;2023-03-14T10:25:19;2.08;;;0.95;;
44328;SDS011;30039;51.462;6.892;2023-03-14T10:28:25;0.95;;;0.80;;
44328;SDS011;30039;51.462;6.892;2023-03-14T10:31:11;1.30;;;0.90;;
44328;SDS011;30039;51.462;6.892;2023-03-14T10:34:01;1.42;;;0.80;;
44328;SDS011;30039;51.462;6.892;2023-03-14T10:36:51;1.55;;;0.88;;
44328;SDS011;30039;51.462;6.892;2023-03-14T10:39:39;3.33;;;1.10;;
44328;SDS011;30039;51.462;6.892;2023-03-14T10:42:29;1.55;;;0.80;;
44328;SDS011;30039;51.462;6.892;2023-03-14T10:51:09;2.20;;;0.60;;
44328;SDS011;30039;51.462;6.892;2023-03-14T10:56:41;0.85;;;0.40;;
44328;SDS011;30039;51.462;6.892;2023-03-14T10:59:37;1.60;;;0.70;;
44328;SDS011;30039;51.462;6.892;2023-03-14T11:11:18;0.93;;;0.60;;
44328;SDS011;30039;51.462;6.892;2023-03-14T11:17:00;1.67;;;0.40;;
44328;SDS011;30039;51.462;6.892;2023-03-14T11:25:46;1.40;;;0.60;;
44328;SDS011;30039;51.462;6.892;2023-03-14T11:28:38;1.45;;;0.50;;
44328;SDS011;30039;51.462;6.892;2023-03-14T11:31:29;2.15;;;0.68;;
44328;SDS011;30039;51.462;6.892;2023-03-14T11:42:46;0.98;;;0.60;;
44328;SDS011;30039;51.462;6.892;2023-03-14T11:45:34;1.95;;;0.55;;
44328;SDS011;30039;51.462;6.892;2023-03-14T11:51:14;3.33;;;0.60;;
44328;SDS011;30039;51.462;6.892;2023-03-14T11:56:54;2.22;;;0.63;;
44328;SDS011;30039;51.462;6.892;2023-03-14T11:59:52;1.80;;;0.75;;
44328;SDS011;30039;51.462;6.892;2023-03-14T12:11:05;4.32;;;0.90;;
44328;SDS011;30039;51.462;6.892;2023-03-14T12:13:54;2.58;;;0.65;;
44328;SDS011;30039;51.462;6.892;2023-03-14T12:16:40;1.75;;;0.65;;
44328;SDS011;30039;51.462;6.892;2023-03-14T12:19:27;3.22;;;1.13;;
44328;SDS011;30039;51.462;6.892;2023-03-14T12:30:42;1.98;;;0.80;;
44328;SDS011;30039;51.462;6.892;2023-03-14T12:33:29;6.32;;;1.00;;
44328;SDS011;30039;51.462;6.892;2023-03-14T12:36:31;4.13;;;0.82;;
44328;SDS011;30039;51.462;6.892;2023-03-14T12:48:14;3.05;;;0.80;;
44328;SDS011;30039;51.462;6.892;2023-03-14T12:51:05;6.70;;;1.27;;
44328;SDS011;30039;51.462;6.892;2023-03-14T12:57:45;4.00;;;1.25;;
44328;SDS011;30039;51.462;6.892;2023-03-14T13:00:21;4.63;;;1.08;;
44328;SDS011;30039;51.462;6.892;2023-03-14T13:03:54;4.10;;;1.05;;
44328;SDS011;30039;51.462;6.892;2023-03-14T13:06:23;5.47;;;1.30;;
44328;SDS011;30039;51.462;6.892;2023-03-14T13:10:16;12.50;;;1.80;;
44328;SDS011;30039;51.462;6.892;2023-03-14T13:12:27;9.40;;;1.67;;
44328;SDS011;30039;51.462;6.892;2023-03-14T13:15:47;7.43;;;1.48;;
44328;SDS011;30039;51.462;6.892;2023-03-14T13:21:24;8.05;;;1.40;;
44328;SDS011;30039;51.462;6.892;2023-03-14T13:24:33;9.20;;;1.50;;
44328;SDS011;30039;51.462;6.892;2023-03-14T13:27:17;4.78;;;1.42;;
44328;SDS011;30039;51.462;6.892;2023-03-14T13:30:14;11.25;;;1.40;;
44328;SDS011;30039;51.462;6.892;2023-03-14T13:33:02;7.90;;;1.67;;
44328;SDS011;30039;51.462;6.892;2023-03-14T13:35:55;12.75;;;2.03;;
44328;SDS011;30039;51.462;6.892;2023-03-14T13:38:43;11.63;;;1.80;;
44328;SDS011;30039;51.462;6.892;2023-03-14T13:41:29;24.30;;;2.45;;
44328;SDS011;30039;51.462;6.892;2023-03-14T13:44:17;10.13;;;1.90;;
44328;SDS011;30039;51.462;6.892;2023-03-14T13:47:09;13.23;;;2.00;;
44328;SDS011;30039;51.462;6.892;2023-03-14T13:49:56;8.30;;;1.58;;
44328;SDS011;30039;51.462;6.892;2023-03-14T13:52:43;10.98;;;1.80;;
44328;SDS011;30039;51.462;6.892;2023-03-14T13:55:29;13.73;;;2.42;;
44328;SDS011;30039;51.462;6.892;2023-03-14T14:03:55;7.78;;;1.70;;
44328;SDS011;30039;51.462;6.892;2023-03-14T14:07:00;11.65;;;1.55;;
44328;SDS011;30039;51.462;6.892;2023-03-14T14:09:50;8.90;;;1.92;;
44328;SDS011;30039;51.462;6.892;2023-03-14T14:12:38;8.50;;;1.88;;
44328;SDS011;30039;51.462;6.892;2023-03-14T14:15:28;6.53;;;1.65;;
44328;SDS011;30039;51.462;6.892;2023-03-14T14:18:15;12.45;;;1.73;;
44328;SDS011;30039;51.462;6.892;2023-03-14T14:21:02;4.97;;;1.33;;
44328;SDS011;30039;51.462;6.892;2023-03-14T14:23:48;7.18;;;1.70;;
44328;SDS011;30039;51.462;6.892;2023-03-14T14:26:33;9.63;;;1.48;;
44328;SDS011;30039;51.462;6.892;2023-03-14T14:29:27;5.93;;;1.60;;
44328;SDS011;30039;51.462;6.892;2023-03-14T14:32:15;7.75;;;1.88;;
44328;SDS011;30039;51.462;6.892;2023-03-14T14:35:01;7.28;;;1.55;;
44328;SDS011;30039;51.462;6.892;2023-03-14T14:37:47;8.38;;;1.63;;
44328;SDS011;30039;51.462;6.892;2023-03-14T14:40:34;9.00;;;1.73;;
44328;SDS011;30039;51.462;6.892;2023-03-14T14:43:23;4.32;;;1.15;;
44328;SDS011;30039;51.462;6.892;2023-03-14T14:46:13;3.30;;;1.20;;
44328;SDS011;30039;51.462;6.892;2023-03-14T14:49:06;4.30;;;1.02;;
44328;SDS011;30039;51.462;6.892;2023-03-14T14:52:18;4.82;;;1.00;;
44328;SDS011;30039;51.462;6.892;2023-03-14T14:55:02;5.18;;;1.30;;
44328;SDS011;30039;51.462;6.892;2023-03-14T14:57:50;5.18;;;1.33;;
44328;SDS011;30039;51.462;6.892;2023-03-14T15:00:39;9.80;;;1.10;;
44328;SDS011;30039;51.462;6.892;2023-03-14T15:03:28;6.90;;;1.60;;
44328;SDS011;30039;51.462;6.892;2023-03-14T15:06:15;8.77;;;1.50;;
44328;SDS011;30039;51.462;6.892;2023-03-14T15:09:01;8.68;;;1.45;;
44328;SDS011;30039;51.462;6.892;2023-03-14T15:11:47;10.20;;;1.30;;
44328;SDS011;30039;51.462;6.892;2023-03-14T15:14:34;4.80;;;1.23;;
44328;SDS011;30039;51.462;6.892;2023-03-14T15:17:20;6.80;;;1.23;;
44328;SDS011;30039;51.462;6.892;2023-03-14T15:20:06;8.60;;;1.83;;
44328;SDS011;30039;51.462;6.892;2023-03-14T15:22:52;2.67;;;1.13;;
44328;SDS011;30039;51.462;6.892;2023-03-14T15:25:37;3.17;;;1.02;;
44328;SDS011;30039;51.462;6.892;2023-03-14T15:28:27;4.45;;;1.20;;
44328;SDS011;30039;51.462;6.892;2023-03-14T15:31:14;4.28;;;1.17;;
44328;SDS011;30039;51.462;6.892;2023-03-14T15:37:25;4.45;;;1.00;;
44328;SDS011;30039;51.462;6.892;2023-03-14T15:40:11;5.32;;;1.27;;
44328;SDS011;30039;51.462;6.892;2023-03-14T15:42:59;4.60;;;1.27;;
44328;SDS011;30039;51.462;6.892;2023-03-14T15:45:45;2.58;;;1.20;;
44328;SDS011;30039;51.462;6.892;2023-03-14T15:48:30;3.55;;;1.23;;
44328;SDS011;30039;51.462;6.892;2023-03-14T15:51:17;5.50;;;1.15;;
44328;SDS011;30039;51.462;6.892;2023-03-14T15:54:03;3.80;;;0.82;;
44328;SDS011;30039;51.462;6.892;2023-03-14T15:56:49;3.67;;;1.08;;
44328;SDS011;30039;51.462;6.892;2023-03-14T15:59:35;3.70;;;1.17;;
44328;SDS011;30039;51.462;6.892;2023-03-14T16:02:20;23.27;;;2.40;;
44328;SDS011;30039;51.462;6.892;2023-03-14T16:05:08;8.05;;;1.13;;
44328;SDS011;30039;51.462;6.892;2023-03-14T16:07:54;4.32;;;0.93;;
44328;SDS011;30039;51.462;6.892;2023-03-14T16:10:40;7.22;;;1.52;;
44328;SDS011;30039;51.462;6.892;2023-03-14T16:13:26;3.47;;;0.98;;
44328;SDS011;30039;51.462;6.892;2023-03-14T16:16:13;4.00;;;1.52;;
44328;SDS011;30039;51.462;6.892;2023-03-14T16:18:58;8.25;;;1.15;;
44328;SDS011;30039;51.462;6.892;2023-03-14T16:21:44;2.55;;;1.00;;
44328;SDS011;30039;51.462;6.892;2023-03-14T16:24:31;7.07;;;1.10;;
44328;SDS011;30039;51.462;6.892;2023-03-14T16:27:17;8.40;;;1.15;;
44328;SDS011;30039;51.462;6.892;2023-03-14T16:30:03;6.72;;;0.93;;
44328;SDS011;30039;51.462;6.892;2023-03-14T16:32:49;4.88;;;1.13;;
44328;SDS011;30039;51.462;6.892;2023-03-14T16:35:35;6.60;;;0.90;;
44328;SDS011;30039;51.462;6.892;2023-03-14T16:38:21;3.45;;;1.10;;
44328;SDS011;30039;51.462;6.892;2023-03-14T16:44:00;5.72;;;1.20;;
44328;SDS011;30039;51.462;6.892;2023-03-14T16:46:46;5.22;;;1.15;;
44328;SDS011;30039;51.462;6.892;2023-03-14T16:49:31;6.13;;;1.08;;
44328;SDS011;30039;51.462;6.892;2023-03-14T16:52:17;4.32;;;0.85;;
44328;SDS011;30039;51.462;6.892;2023-03-14T16:55:03;4.75;;;1.35;;
44328;SDS011;30039;51.462;6.892;2023-03-14T16:57:49;6.78;;;1.38;;
44328;SDS011;30039;51.462;6.892;2023-03-14T17:00:35;4.32;;;1.08;;
44328;SDS011;30039;51.462;6.892;2023-03-14T17:03:20;4.25;;;1.10;;
44328;SDS011;30039;51.462;6.892;2023-03-14T17:06:06;3.70;;;0.90;;
44328;SDS011;30039;51.462;6.892;2023-03-14T17:08:53;4.05;;;1.05;;
44328;SDS011;30039;51.462;6.892;2023-03-14T17:11:43;3.55;;;1.00;;
44328;SDS011;30039;51.462;6.892;2023-03-14T17:14:28;2.10;;;0.70;;
44328;SDS011;30039;51.462;6.892;2023-03-14T17:17:14;5.47;;;1.00;;
44328;SDS011;30039;51.462;6.892;2023-03-14T17:20:00;4.47;;;0.95;;
44328;SDS011;30039;51.462;6.892;2023-03-14T17:22:46;3.58;;;1.10;;
44328;SDS011;30039;51.462;6.892;2023-03-14T17:25:32;5.47;;;1.50;;
44328;SDS011;30039;51.462;6.892;2023-03-14T17:28:18;6.75;;;1.30;;
44328;SDS011;30039;51.462;6.892;2023-03-14T17:31:09;6.85;;;1.60;;
44328;SDS011;30039;51.462;6.892;2023-03-14T17:33:57;7.32;;;1.13;;
44328;SDS011;30039;51.462;6.892;2023-03-14T17:36:42;3.92;;;1.25;;
44328;SDS011;30039;51.462;6.892;2023-03-14T17:39:29;5.95;;;1.65;;
44328;SDS011;30039;51.462;6.892;2023-03-14T17:42:15;4.55;;;1.00;;
44328;SDS011;30039;51.462;6.892;2023-03-14T17:45:00;4.07;;;1.27;;
44328;SDS011;30039;51.462;6.892;2023-03-14T17:47:46;3.33;;;1.00;;
44328;SDS011;30039;51.462;6.892;2023-03-14T17:50:32;6.53;;;1.50;;
44328;SDS011;30039;51.462;6.892;2023-03-14T17:53:18;2.40;;;1.00;;
44328;SDS011;30039;51.462;6.892;2023-03-14T17:56:04;3.88;;;1.02;;
44328;SDS011;30039;51.462;6.892;2023-03-14T17:58:50;3.58;;;1.13;;
44328;SDS011;30039;51.462;6.892;2023-03-14T18:01:36;9.73;;;1.25;;
44328;SDS011;30039;51.462;6.892;2023-03-14T18:04:22;3.72;;;1.35;;
44328;SDS011;30039;51.462;6.892;2023-03-14T18:07:08;5.38;;;1.65;;
44328;SDS011;30039;51.462;6.892;2023-03-14T18:09:53;7.63;;;1.40;;
44328;SDS011;30039;51.462;6.892;2023-03-14T18:12:39;5.32;;;1.50;;
44328;SDS011;30039;51.462;6.892;2023-03-14T18:15:25;6.45;;;1.83;;
44328;SDS011;30039;51.462;6.892;2023-03-14T18:18:10;6.90;;;1.95;;
44328;SDS011;30039;51.462;6.892;2023-03-14T18:20:56;7.05;;;1.70;;
44328;SDS011;30039;51.462;6.892;2023-03-14T18:23:42;5.57;;;1.63;;
44328;SDS011;30039;51.462;6.892;2023-03-14T18:26:27;6.45;;;1.67;;
44328;SDS011;30039;51.462;6.892;2023-03-14T18:29:13;5.97;;;1.63;;